Time;durP1;ratioP1;P1;durP2;ratioP2;P2;SDS_P1;SDS_P2;PMS_P1;PMS_P2;Temp;Humidity;BMP_temperature;BMP_pressure;BME280_temperature;BME280_humidity;BME280_pressure;Samples;Min_cycle;Max_cycle;Signal;HPM_P1;HPM_P2
2022/01/29 00:00:06;;;;;;;6.53;2.35;;;;;;;;;;4975867;28;20506;-68
2022/01/29 00:02:40;;;;;;;5.32;1.80;;;;;;;;;;4993015;28;20056;-68
2022/01/29 00:05:11;;;;;;;6.63;2.83;;;;;;;;;;5049444;28;20061;-69
2022/01/29 00:07:42;;;;;;;5.28;2.42;;;;;;;;;;5067926;28;20054;-69
2022/01/29 00:10:14;;;;;;;4.30;2.38;;;;;;;;;;5045497;28;20049;-69
2022/01/29 00:12:45;;;;;;;9.50;6.47;;;;;;;;;;5070171;28;20063;-68
2022/01/29 00:15:15;;;;;;;4.97;2.35;;;;;;;;;;5070143;28;20040;-71
2022/01/29 00:17:45;;;;;;;6.68;2.47;;;;;;;;;;5051591;28;20063;-68
2022/01/29 00:20:15;;;;;;;5.05;2.10;;;;;;;;;;5070245;28;20044;-68
2022/01/29 00:22:46;;;;;;;7.07;3.15;;;;;;;;;;5047757;28;20049;-68
2022/01/29 00:25:16;;;;;;;5.65;2.22;;;;;;;;;;5029084;28;20056;-68
2022/01/29 00:27:47;;;;;;;6.45;2.63;;;;;;;;;;4971802;28;20061;-68
2022/01/29 00:30:18;;;;;;;5.35;2.78;;;;;;;;;;4972674;28;20067;-69
2022/01/29 00:32:48;;;;;;;5.43;2.30;;;;;;;;;;4972150;28;20059;-68
2022/01/29 00:35:18;;;;;;;4.72;2.00;;;;;;;;;;4972580;28;20062;-68
2022/01/29 00:37:49;;;;;;;6.63;2.22;;;;;;;;;;4972373;28;20459;-67
2022/01/29 00:40:21;;;;;;;5.00;2.13;;;;;;;;;;4956179;28;20058;-68
2022/01/29 00:42:52;;;;;;;4.72;1.98;;;;;;;;;;4972471;28;20050;-68
2022/01/29 00:45:23;;;;;;;4.78;1.70;;;;;;;;;;4972369;28;20066;-68
2022/01/29 00:47:53;;;;;;;6.72;2.28;;;;;;;;;;4939871;28;20063;-68
2022/01/29 00:50:24;;;;;;;9.05;3.45;;;;;;;;;;4972534;28;20451;-68
2022/01/29 00:52:54;;;;;;;5.10;1.98;;;;;;;;;;4972159;28;20054;-68
2022/01/29 00:55:24;;;;;;;4.70;1.50;;;;;;;;;;4933452;29;20063;-68
2022/01/29 00:58:00;;;;;;;4.20;1.90;;;;;;;;;;4918212;29;20063;-68
2022/01/29 01:00:30;;;;;;;3.72;1.50;;;;;;;;;;4954787;28;20063;-69
2022/01/29 01:03:01;;;;;;;5.13;1.77;;;;;;;;;;4982396;28;20058;-67
2022/01/29 01:05:34;;;;;;;4.03;1.55;;;;;;;;;;5013292;28;20049;-68
2022/01/29 01:08:07;;;;;;;4.28;1.13;;;;;;;;;;5030584;28;20417;-68
2022/01/29 01:10:38;;;;;;;5.38;1.95;;;;;;;;;;5030800;28;20399;-68
2022/01/29 01:13:08;;;;;;;3.60;1.15;;;;;;;;;;4997615;28;20545;-69
2022/01/29 01:15:38;;;;;;;2.70;1.27;;;;;;;;;;5014426;28;20061;-68
2022/01/29 01:18:09;;;;;;;3.15;0.98;;;;;;;;;;5030380;28;20060;-68
2022/01/29 01:20:39;;;;;;;3.05;1.08;;;;;;;;;;4998291;28;20053;-67
2022/01/29 01:23:10;;;;;;;3.17;0.88;;;;;;;;;;5013955;28;20061;-67
2022/01/29 01:25:40;;;;;;;3.35;1.20;;;;;;;;;;5036007;28;20417;-67
2022/01/29 01:28:10;;;;;;;2.25;1.10;;;;;;;;;;5072501;28;20526;-67
2022/01/29 01:30:41;;;;;;;3.20;1.10;;;;;;;;;;5090124;28;20060;-68
2022/01/29 01:33:12;;;;;;;4.47;1.10;;;;;;;;;;5090426;28;20075;-68
2022/01/29 01:35:48;;;;;;;4.57;1.00;;;;;;;;;;5090366;28;20562;-67
2022/01/29 01:38:23;;;;;;;1.08;0.43;;;;;;;;;;5090619;28;20071;-67
2022/01/29 01:40:59;;;;;;;5.82;1.25;;;;;;;;;;5090254;28;20408;-69
2022/01/29 01:43:30;;;;;;;1.48;0.80;;;;;;;;;;5090064;28;20087;-68
2022/01/29 01:46:00;;;;;;;1.02;0.50;;;;;;;;;;5090229;28;20048;-67
2022/01/29 01:48:31;;;;;;;1.92;0.75;;;;;;;;;;5073615;28;20554;-68
2022/01/29 01:51:01;;;;;;;4.03;1.00;;;;;;;;;;5040165;28;20052;-67
2022/01/29 01:53:31;;;;;;;1.80;0.70;;;;;;;;;;5089907;28;20070;-68
2022/01/29 01:56:01;;;;;;;2.47;1.05;;;;;;;;;;5090040;28;20107;-68
2022/01/29 01:58:32;;;;;;;1.70;0.70;;;;;;;;;;5069393;28;20052;-67
2022/01/29 02:01:03;;;;;;;3.17;0.85;;;;;;;;;;5019829;28;20045;-66
2022/01/29 02:03:33;;;;;;;2.00;0.80;;;;;;;;;;5036914;28;20052;-68
2022/01/29 02:06:05;;;;;;;1.75;0.65;;;;;;;;;;5049170;28;20413;-68
2022/01/29 02:08:36;;;;;;;2.28;0.70;;;;;;;;;;5049369;28;20544;-66
2022/01/29 02:11:08;;;;;;;1.13;0.50;;;;;;;;;;5049472;28;20056;-67
2022/01/29 02:13:39;;;;;;;2.15;0.70;;;;;;;;;;5032964;28;20065;-68
2022/01/29 02:16:09;;;;;;;1.85;0.75;;;;;;;;;;5032431;28;20048;-67
2022/01/29 02:18:40;;;;;;;1.30;0.80;;;;;;;;;;5049210;28;20406;-67
2022/01/29 02:21:11;;;;;;;1.45;0.60;;;;;;;;;;5049348;28;20128;-67
2022/01/29 02:23:41;;;;;;;0.80;0.50;;;;;;;;;;5049082;28;20080;-67
2022/01/29 02:26:12;;;;;;;1.13;0.50;;;;;;;;;;5049111;28;20053;-67
2022/01/29 02:28:42;;;;;;;1.20;0.47;;;;;;;;;;5046387;28;20887;-67
2022/01/29 02:31:12;;;;;;;1.60;0.40;;;;;;;;;;5029206;28;20064;-67
2022/01/29 02:33:44;;;;;;;1.38;0.73;;;;;;;;;;5068872;28;20059;-67
2022/01/29 02:36:17;;;;;;;0.57;0.30;;;;;;;;;;5068856;28;20045;-68
2022/01/29 02:38:48;;;;;;;0.90;0.60;;;;;;;;;;5068757;28;20582;-68
2022/01/29 02:41:19;;;;;;;1.88;0.50;;;;;;;;;;5068869;28;20056;-67
2022/01/29 02:43:51;;;;;;;1.05;0.38;;;;;;;;;;5046826;28;20052;-66
2022/01/29 02:46:30;;;;;;;2.25;0.47;;;;;;;;;;5088898;28;20059;-68
2022/01/29 02:49:01;;;;;;;2.70;0.70;;;;;;;;;;5038481;28;20055;-67
2022/01/29 02:51:31;;;;;;;1.40;0.90;;;;;;;;;;5088946;28;20048;-67
2022/01/29 02:54:01;;;;;;;0.95;0.45;;;;;;;;;;5088742;28;20049;-67
2022/01/29 02:56:31;;;;;;;1.67;0.82;;;;;;;;;;5072262;28;20071;-66
2022/01/29 02:59:02;;;;;;;1.95;0.85;;;;;;;;;;5088783;28;20063;-67
2022/01/29 03:01:32;;;;;;;2.65;0.50;;;;;;;;;;5088818;28;20040;-67
2022/01/29 03:04:04;;;;;;;1.20;0.43;;;;;;;;;;5088675;28;20052;-66
2022/01/29 03:06:34;;;;;;;0.45;0.30;;;;;;;;;;5088694;28;20048;-67
2022/01/29 03:09:06;;;;;;;1.23;0.57;;;;;;;;;;5088634;28;20052;-66
2022/01/29 03:11:37;;;;;;;1.60;0.65;;;;;;;;;;5077504;28;20416;-67
2022/01/29 03:14:07;;;;;;;2.92;0.50;;;;;;;;;;5070663;28;20040;-66
2022/01/29 03:16:37;;;;;;;1.63;0.60;;;;;;;;;;5070902;28;20048;-67
2022/01/29 03:19:08;;;;;;;1.40;0.50;;;;;;;;;;5067970;28;20075;-67
2022/01/29 03:21:39;;;;;;;1.45;0.57;;;;;;;;;;5034852;28;20052;-66
2022/01/29 03:24:09;;;;;;;1.42;0.70;;;;;;;;;;5078168;28;20059;-67
2022/01/29 03:26:39;;;;;;;1.88;0.47;;;;;;;;;;5066109;28;20052;-67
2022/01/29 03:29:09;;;;;;;1.38;0.90;;;;;;;;;;5068123;28;20060;-66
2022/01/29 03:31:39;;;;;;;1.70;0.70;;;;;;;;;;5034884;28;20056;-68
2022/01/29 03:34:10;;;;;;;1.58;0.63;;;;;;;;;;5068038;28;20052;-68
2022/01/29 03:36:40;;;;;;;1.58;0.60;;;;;;;;;;5068187;28;20060;-67
2022/01/29 03:39:11;;;;;;;1.55;0.80;;;;;;;;;;5068081;28;20061;-67
2022/01/29 03:41:41;;;;;;;4.70;0.70;;;;;;;;;;5068307;28;20049;-68
2022/01/29 03:44:12;;;;;;;5.30;0.70;;;;;;;;;;5035032;28;20494;-68
2022/01/29 03:46:45;;;;;;;1.92;0.90;;;;;;;;;;5031822;28;20124;-66
2022/01/29 03:49:15;;;;;;;2.70;0.60;;;;;;;;;;5047741;28;20064;-67
2022/01/29 03:51:45;;;;;;;1.80;0.50;;;;;;;;;;5047856;28;20061;-68
2022/01/29 03:54:16;;;;;;;4.28;1.10;;;;;;;;;;5008162;28;20387;-66
2022/01/29 03:56:46;;;;;;;2.50;0.70;;;;;;;;;;4992303;28;20060;-67
2022/01/29 03:59:16;;;;;;;1.65;0.60;;;;;;;;;;4991795;28;20050;-66
2022/01/29 04:01:46;;;;;;;4.65;0.68;;;;;;;;;;5012171;28;20568;-66
2022/01/29 04:04:17;;;;;;;1.60;0.65;;;;;;;;;;5023533;28;20727;-66
2022/01/29 04:06:50;;;;;;;4.20;0.43;;;;;;;;;;4982938;28;20432;-67
2022/01/29 04:09:21;;;;;;;5.85;0.60;;;;;;;;;;5031472;28;20053;-67
2022/01/29 04:11:52;;;;;;;1.67;0.60;;;;;;;;;;5015555;28;20054;-67
2022/01/29 04:14:33;;;;;;;2.75;0.63;;;;;;;;;;4998977;28;20062;-66
2022/01/29 04:17:04;;;;;;;2.55;0.60;;;;;;;;;;4982572;28;20576;-67
2022/01/29 04:19:35;;;;;;;3.80;0.82;;;;;;;;;;5031392;28;20542;-66
2022/01/29 04:22:07;;;;;;;1.90;0.70;;;;;;;;;;5031508;28;20060;-67
2022/01/29 04:24:37;;;;;;;6.05;0.93;;;;;;;;;;5031406;28;20053;-67
2022/01/29 04:27:17;;;;;;;3.42;0.68;;;;;;;;;;5031578;28;20049;-67
2022/01/29 04:29:57;;;;;;;0.93;0.40;;;;;;;;;;5034874;28;20054;-67
2022/01/29 04:35:19;;;;;;;1.05;0.50;;;;;;;;;;5038133;28;20096;-66
2022/01/29 04:37:50;;;;;;;1.65;0.52;;;;;;;;;;5071305;28;20063;-67
2022/01/29 04:40:21;;;;;;;2.03;0.60;;;;;;;;;;5054286;28;20054;-68
2022/01/29 04:42:52;;;;;;;5.20;1.00;;;;;;;;;;5071334;28;20080;-67
2022/01/29 04:45:23;;;;;;;1.35;0.60;;;;;;;;;;5022480;28;20056;-67
2022/01/29 04:47:53;;;;;;;7.45;0.93;;;;;;;;;;5070979;28;20052;-66
2022/01/29 04:50:23;;;;;;;1.45;0.50;;;;;;;;;;5071001;28;20044;-66
2022/01/29 04:52:54;;;;;;;2.60;0.60;;;;;;;;;;5030941;28;20068;-66
2022/01/29 04:55:25;;;;;;;2.38;0.90;;;;;;;;;;5030904;28;20054;-65
2022/01/29 04:57:55;;;;;;;1.35;0.30;;;;;;;;;;5014719;28;20050;-67
2022/01/29 05:00:25;;;;;;;1.75;0.60;;;;;;;;;;4950262;28;20065;-67
2022/01/29 05:03:06;;;;;;;2.47;0.63;;;;;;;;;;4979157;28;20053;-66
2022/01/29 05:05:37;;;;;;;1.88;0.70;;;;;;;;;;4978334;28;20062;-66
2022/01/29 05:08:08;;;;;;;2.05;0.52;;;;;;;;;;4994914;28;20058;-66
2022/01/29 05:10:39;;;;;;;1.63;0.60;;;;;;;;;;4977228;28;20072;-66
2022/01/29 05:13:13;;;;;;;1.90;0.60;;;;;;;;;;4997975;28;20069;-68
2022/01/29 05:15:59;;;;;;;5.18;0.50;;;;;;;;;;5014607;28;20057;-66
2022/01/29 05:27:01;;;;;;;1.90;0.55;;;;;;;;;;5010551;28;20062;-65
2022/01/29 05:29:32;;;;;;;3.83;0.57;;;;;;;;;;5012292;28;20638;-66
2022/01/29 05:32:07;;;;;;;4.13;0.52;;;;;;;;;;4997228;28;20060;-66
2022/01/29 05:34:38;;;;;;;5.38;0.70;;;;;;;;;;5014009;28;20529;-66
2022/01/29 05:37:29;;;;;;;2.40;0.60;;;;;;;;;;5030156;28;20053;-66
2022/01/29 05:39:59;;;;;;;4.00;0.68;;;;;;;;;;5040762;28;20056;-66
2022/01/29 05:42:29;;;;;;;4.47;0.70;;;;;;;;;;5070007;28;20056;-66
2022/01/29 05:45:00;;;;;;;2.83;0.90;;;;;;;;;;5016521;28;20055;-66
2022/01/29 05:47:30;;;;;;;1.20;0.50;;;;;;;;;;5049865;28;20052;-67
2022/01/29 05:50:01;;;;;;;2.15;0.93;;;;;;;;;;5049942;28;20084;-67
2022/01/29 05:52:32;;;;;;;1.90;0.50;;;;;;;;;;5049775;28;20068;-66
2022/01/29 05:55:07;;;;;;;1.90;0.57;;;;;;;;;;5049721;28;20220;-66
2022/01/29 05:57:37;;;;;;;2.13;0.77;;;;;;;;;;5049784;28;20416;-66
2022/01/29 06:00:08;;;;;;;3.47;0.90;;;;;;;;;;5049636;28;20045;-66
2022/01/29 06:02:44;;;;;;;2.60;0.70;;;;;;;;;;5066447;28;20674;-66
2022/01/29 06:05:15;;;;;;;1.85;0.60;;;;;;;;;;5069556;28;20045;-67
2022/01/29 06:07:45;;;;;;;1.65;0.70;;;;;;;;;;5029218;28;20061;-67
2022/01/29 06:10:15;;;;;;;1.10;0.50;;;;;;;;;;5009707;28;20065;-66
2022/01/29 06:13:04;;;;;;;4.10;0.60;;;;;;;;;;5009656;28;20050;-66
2022/01/29 06:15:39;;;;;;;3.95;0.55;;;;;;;;;;5009373;28;20199;-66
2022/01/29 06:18:13;;;;;;;2.28;0.63;;;;;;;;;;4946139;28;20050;-66
2022/01/29 06:20:48;;;;;;;4.20;0.52;;;;;;;;;;4976993;28;20057;-67
2022/01/29 06:23:29;;;;;;;2.92;0.80;;;;;;;;;;4944237;28;20076;-68
2022/01/29 06:26:02;;;;;;;2.83;0.98;;;;;;;;;;5029070;28;20065;-66
2022/01/29 06:28:33;;;;;;;2.22;0.90;;;;;;;;;;5029113;28;20057;-66
2022/01/29 06:31:05;;;;;;;3.83;1.10;;;;;;;;;;5029330;28;20060;-66
2022/01/29 06:33:36;;;;;;;3.10;1.00;;;;;;;;;;5029289;28;20054;-66
2022/01/29 06:36:06;;;;;;;7.35;1.40;;;;;;;;;;4996850;28;20054;-67
2022/01/29 06:38:37;;;;;;;2.30;1.10;;;;;;;;;;5029283;28;20158;-67
2022/01/29 06:41:08;;;;;;;1.73;0.70;;;;;;;;;;4996324;28;20697;-66
2022/01/29 06:43:38;;;;;;;3.45;0.90;;;;;;;;;;5029056;28;20486;-67
2022/01/29 06:46:08;;;;;;;3.97;0.80;;;;;;;;;;5060775;28;20071;-66
2022/01/29 06:48:38;;;;;;;3.10;1.17;;;;;;;;;;5083121;28;20048;-66
2022/01/29 06:51:09;;;;;;;2.63;1.13;;;;;;;;;;5088634;28;20051;-66
2022/01/29 06:53:39;;;;;;;2.42;0.88;;;;;;;;;;5055491;28;20431;-68
2022/01/29 06:56:10;;;;;;;7.43;1.33;;;;;;;;;;5071662;28;20051;-67
2022/01/29 06:58:40;;;;;;;4.78;1.40;;;;;;;;;;5089085;28;20044;-66
2022/01/29 07:01:31;;;;;;;2.53;1.48;;;;;;;;;;5068334;28;20051;-67
2022/01/29 07:04:01;;;;;;;3.15;1.15;;;;;;;;;;5068723;28;20053;-67
2022/01/29 07:06:32;;;;;;;2.15;0.60;;;;;;;;;;5068192;28;20063;-67
2022/01/29 07:09:02;;;;;;;5.25;1.50;;;;;;;;;;5034904;28;20404;-67
2022/01/29 07:11:33;;;;;;;2.13;1.02;;;;;;;;;;5002859;28;20053;-67
2022/01/29 07:14:03;;;;;;;4.70;1.65;;;;;;;;;;5052211;28;20053;-67
2022/01/29 07:16:35;;;;;;;2.83;1.17;;;;;;;;;;5068265;28;20060;-67
2022/01/29 07:19:06;;;;;;;2.75;1.00;;;;;;;;;;5032264;28;20045;-67
2022/01/29 07:21:37;;;;;;;4.32;1.35;;;;;;;;;;5008158;28;20052;-67
2022/01/29 07:24:08;;;;;;;4.47;1.20;;;;;;;;;;4953506;28;20047;-67
2022/01/29 07:26:38;;;;;;;2.63;1.10;;;;;;;;;;4969326;28;20054;-67
2022/01/29 07:29:09;;;;;;;4.70;1.00;;;;;;;;;;4944708;28;20052;-70
2022/01/29 07:31:39;;;;;;;2.45;1.08;;;;;;;;;;4930853;29;20070;-66
2022/01/29 07:34:09;;;;;;;3.55;1.00;;;;;;;;;;4901770;29;20051;-67
2022/01/29 07:36:39;;;;;;;2.28;1.10;;;;;;;;;;4905382;29;20052;-66
2022/01/29 07:39:10;;;;;;;2.72;1.00;;;;;;;;;;4937607;29;20063;-67
2022/01/29 07:41:41;;;;;;;1.77;0.95;;;;;;;;;;4936868;29;20540;-67
2022/01/29 07:44:12;;;;;;;3.35;1.20;;;;;;;;;;4902473;29;20063;-68
2022/01/29 07:46:44;;;;;;;3.17;1.10;;;;;;;;;;4956128;28;20055;-68
2022/01/29 07:49:15;;;;;;;3.60;0.85;;;;;;;;;;4956371;28;20428;-68
2022/01/29 07:51:46;;;;;;;2.63;1.10;;;;;;;;;;4908743;29;20060;-67
2022/01/29 07:54:16;;;;;;;4.35;1.17;;;;;;;;;;4918241;29;20067;-68
2022/01/29 07:56:46;;;;;;;2.17;0.90;;;;;;;;;;4927752;29;20059;-67
2022/01/29 07:59:16;;;;;;;5.13;1.10;;;;;;;;;;4927756;28;20061;-67
2022/01/29 08:01:48;;;;;;;2.70;1.50;;;;;;;;;;5004774;28;20414;-67
2022/01/29 08:04:23;;;;;;;6.20;1.10;;;;;;;;;;5015003;28;20054;-67
2022/01/29 08:06:53;;;;;;;3.22;1.20;;;;;;;;;;5014656;28;20053;-66
2022/01/29 08:09:23;;;;;;;4.47;1.25;;;;;;;;;;4982231;28;20054;-67
2022/01/29 08:11:53;;;;;;;2.70;1.27;;;;;;;;;;4950131;28;20100;-67
2022/01/29 08:14:24;;;;;;;3.20;1.23;;;;;;;;;;5025110;28;20061;-66
2022/01/29 08:16:54;;;;;;;2.70;1.15;;;;;;;;;;5034437;28;20042;-66
2022/01/29 08:19:24;;;;;;;3.63;1.00;;;;;;;;;;5034414;28;20053;-68
2022/01/29 08:21:55;;;;;;;4.05;1.27;;;;;;;;;;5034258;28;20053;-67
2022/01/29 08:24:25;;;;;;;3.05;1.40;;;;;;;;;;5048084;28;20056;-66
2022/01/29 08:26:56;;;;;;;2.60;1.10;;;;;;;;;;5097197;28;20491;-67
2022/01/29 08:29:26;;;;;;;2.47;1.05;;;;;;;;;;5074180;28;20083;-66
2022/01/29 08:31:57;;;;;;;2.70;1.15;;;;;;;;;;5074604;28;20060;-66
2022/01/29 08:34:27;;;;;;;1.95;0.90;;;;;;;;;;5020438;28;20053;-67
2022/01/29 08:37:01;;;;;;;2.08;1.10;;;;;;;;;;5020794;28;20049;-68
2022/01/29 08:39:32;;;;;;;3.20;1.15;;;;;;;;;;5054507;28;20053;-67
2022/01/29 08:42:03;;;;;;;1.92;0.85;;;;;;;;;;5004740;28;20064;-67
2022/01/29 08:44:33;;;;;;;2.60;0.90;;;;;;;;;;5033983;28;20049;-67
2022/01/29 08:47:04;;;;;;;2.08;0.93;;;;;;;;;;5030454;28;20065;-67
2022/01/29 08:49:35;;;;;;;5.40;1.13;;;;;;;;;;5031174;28;20060;-68
2022/01/29 08:52:05;;;;;;;3.25;1.25;;;;;;;;;;4998064;28;20046;-67
2022/01/29 08:54:35;;;;;;;2.55;1.35;;;;;;;;;;5031115;28;20057;-68
2022/01/29 08:57:06;;;;;;;3.25;1.30;;;;;;;;;;5030873;28;20053;-70
2022/01/29 08:59:36;;;;;;;4.03;1.20;;;;;;;;;;5031124;28;20053;-67
2022/01/29 09:02:07;;;;;;;3.08;1.42;;;;;;;;;;5030985;28;20413;-67
2022/01/29 09:04:37;;;;;;;2.92;1.33;;;;;;;;;;5030904;28;20049;-67
2022/01/29 09:07:09;;;;;;;2.50;1.30;;;;;;;;;;4997836;28;20449;-67
2022/01/29 09:09:44;;;;;;;3.50;1.33;;;;;;;;;;4997747;28;20406;-68
2022/01/29 09:12:14;;;;;;;2.47;1.10;;;;;;;;;;5041955;28;20060;-68
2022/01/29 09:14:44;;;;;;;2.97;1.13;;;;;;;;;;5061802;28;20095;-67
2022/01/29 09:17:15;;;;;;;2.28;1.10;;;;;;;;;;5021017;28;20052;-67
2022/01/29 09:19:45;;;;;;;5.38;1.10;;;;;;;;;;5070439;28;20049;-67
2022/01/29 09:22:15;;;;;;;2.05;0.90;;;;;;;;;;5082416;28;20044;-67
2022/01/29 09:24:46;;;;;;;5.40;1.20;;;;;;;;;;5090801;28;20070;-67
2022/01/29 09:27:16;;;;;;;3.65;2.03;;;;;;;;;;5092962;28;20384;-68
2022/01/29 09:29:46;;;;;;;1.80;0.75;;;;;;;;;;5056998;28;20048;-67
2022/01/29 09:32:17;;;;;;;2.30;1.05;;;;;;;;;;5073954;28;20048;-67
2022/01/29 09:34:47;;;;;;;3.40;1.30;;;;;;;;;;5073784;28;20443;-67
2022/01/29 09:37:17;;;;;;;11.00;1.00;;;;;;;;;;5092806;28;20056;-68
2022/01/29 09:39:48;;;;;;;1.95;0.63;;;;;;;;;;5092769;28;20047;-68
2022/01/29 09:42:19;;;;;;;2.63;1.23;;;;;;;;;;5073829;28;20056;-68
2022/01/29 09:44:52;;;;;;;5.45;1.05;;;;;;;;;;5090601;28;20055;-68
2022/01/29 09:47:23;;;;;;;2.30;0.90;;;;;;;;;;5092735;28;20048;-67
2022/01/29 09:49:54;;;;;;;1.27;0.50;;;;;;;;;;5092791;28;20055;-68
2022/01/29 09:52:25;;;;;;;2.35;0.70;;;;;;;;;;5092468;28;20037;-68
2022/01/29 09:54:59;;;;;;;3.67;0.70;;;;;;;;;;5057073;28;20056;-67
2022/01/29 09:57:32;;;;;;;1.23;0.80;;;;;;;;;;5091303;28;20399;-70
2022/01/29 10:00:06;;;;;;;12.23;1.10;;;;;;;;;;5092188;28;20051;-69
2022/01/29 10:02:42;;;;;;;3.45;0.40;;;;;;;;;;5092351;28;20048;-69
2022/01/29 10:05:13;;;;;;;0.80;0.30;;;;;;;;;;5074003;28;20515;-68
2022/01/29 10:07:43;;;;;;;1.75;0.60;;;;;;;;;;5092215;28;20044;-69
2022/01/29 10:10:20;;;;;;;1.63;0.50;;;;;;;;;;5056646;28;20048;-67
2022/01/29 10:12:50;;;;;;;6.57;1.15;;;;;;;;;;5092099;28;20040;-67
2022/01/29 10:15:25;;;;;;;3.15;0.70;;;;;;;;;;5092200;28;20051;-68
2022/01/29 10:17:55;;;;;;;3.35;1.13;;;;;;;;;;5023769;28;20051;-67
2022/01/29 10:20:30;;;;;;;2.22;0.95;;;;;;;;;;5092093;28;20399;-68
2022/01/29 10:23:02;;;;;;;3.10;1.27;;;;;;;;;;5072862;28;20044;-67
2022/01/29 10:25:37;;;;;;;2.50;0.50;;;;;;;;;;5072990;28;20059;-67
2022/01/29 10:28:18;;;;;;;3.97;1.30;;;;;;;;;;5091927;28;20126;-69
2022/01/29 10:30:56;;;;;;;2.63;0.90;;;;;;;;;;5091453;28;20032;-68
2022/01/29 10:33:34;;;;;;;1.92;0.63;;;;;;;;;;5072531;28;20519;-68
2022/01/29 10:36:10;;;;;;;3.38;0.50;;;;;;;;;;5089203;28;20051;-68
2022/01/29 10:38:41;;;;;;;1.08;0.45;;;;;;;;;;5089332;28;20476;-67
2022/01/29 10:41:27;;;;;;;1.42;0.50;;;;;;;;;;5089352;28;20052;-67
2022/01/29 10:44:18;;;;;;;0.93;0.40;;;;;;;;;;5028645;28;20064;-67
2022/01/29 10:46:53;;;;;;;1.58;0.40;;;;;;;;;;5028678;28;20053;-67
2022/01/29 10:49:34;;;;;;;3.20;0.60;;;;;;;;;;5013591;28;20065;-68
2022/01/29 10:52:10;;;;;;;4.03;0.90;;;;;;;;;;5028791;28;20068;-68
2022/01/29 10:54:42;;;;;;;2.10;0.73;;;;;;;;;;5028993;28;20061;-68
2022/01/29 10:57:15;;;;;;;3.22;0.90;;;;;;;;;;4996298;28;20459;-67
2022/01/29 10:59:53;;;;;;;1.70;0.90;;;;;;;;;;5029027;28;20061;-67
2022/01/29 11:02:28;;;;;;;3.95;0.90;;;;;;;;;;5028750;28;20057;-67
2022/01/29 11:05:03;;;;;;;2.00;0.77;;;;;;;;;;4979886;28;20053;-68
2022/01/29 11:07:36;;;;;;;1.30;0.40;;;;;;;;;;5021573;28;20046;-67
2022/01/29 11:10:09;;;;;;;0.80;0.50;;;;;;;;;;5012013;28;20053;-68
2022/01/29 11:12:46;;;;;;;4.43;0.80;;;;;;;;;;4964409;28;20061;-68
2022/01/29 11:15:18;;;;;;;2.78;1.45;;;;;;;;;;5028658;28;20713;-68
2022/01/29 11:17:49;;;;;;;4.85;1.88;;;;;;;;;;5028667;28;20049;-68
2022/01/29 11:20:20;;;;;;;2.95;1.90;;;;;;;;;;5028423;28;20060;-67
2022/01/29 11:22:51;;;;;;;4.00;1.50;;;;;;;;;;5035292;28;20416;-67
2022/01/29 11:25:26;;;;;;;7.78;4.70;;;;;;;;;;5019033;28;20061;-68
2022/01/29 11:28:18;;;;;;;3.72;2.17;;;;;;;;;;5035470;28;20057;-67
2022/01/29 11:31:14;;;;;;;1.63;0.73;;;;;;;;;;5068721;28;20052;-68
2022/01/29 11:34:00;;;;;;;2.90;1.48;;;;;;;;;;4988841;28;20062;-68
2022/01/29 11:37:02;;;;;;;4.97;0.82;;;;;;;;;;4989214;28;20053;-68
2022/01/29 11:39:35;;;;;;;5.55;1.00;;;;;;;;;;4910806;29;20053;-68
2022/01/29 11:42:17;;;;;;;2.20;0.90;;;;;;;;;;4912147;29;20071;-67
2022/01/29 11:44:48;;;;;;;1.65;0.90;;;;;;;;;;4890109;29;20062;-67
2022/01/29 11:47:27;;;;;;;3.65;0.80;;;;;;;;;;4918367;29;20527;-69
2022/01/29 11:50:27;;;;;;;1.45;0.60;;;;;;;;;;4949641;29;20051;-67
2022/01/29 11:53:03;;;;;;;5.43;0.93;;;;;;;;;;4949758;29;20055;-67
2022/01/29 11:55:44;;;;;;;2.10;0.90;;;;;;;;;;4949369;29;20411;-69
2022/01/29 11:58:18;;;;;;;3.75;1.45;;;;;;;;;;4950076;29;20070;-68
2022/01/29 12:00:56;;;;;;;2.38;1.20;;;;;;;;;;4949924;29;20404;-68
2022/01/29 12:06:24;;;;;;;1.80;0.60;;;;;;;;;;4949936;29;20054;-67
2022/01/29 12:09:21;;;;;;;3.58;1.00;;;;;;;;;;4949784;29;20058;-67
2022/01/29 12:12:27;;;;;;;;;;;;;;;;;;4955467;28;20051;-67
2022/01/29 12:15:18;;;;;;;3.65;1.00;;;;;;;;;;4943818;28;20002;-68
2022/01/29 12:18:01;;;;;;;1.13;0.55;;;;;;;;;;5047476;28;20053;-69
2022/01/29 12:20:32;;;;;;;3.47;0.77;;;;;;;;;;4982181;28;20053;-69
2022/01/29 12:23:05;;;;;;;1.77;0.80;;;;;;;;;;4978148;28;20053;-67
2022/01/29 12:25:36;;;;;;;3.92;0.93;;;;;;;;;;4980633;28;20065;-67
2022/01/29 12:28:07;;;;;;;4.50;1.55;;;;;;;;;;4938386;28;20090;-68
2022/01/29 12:30:40;;;;;;;3.20;1.00;;;;;;;;;;4974061;28;20426;-67
2022/01/29 12:33:16;;;;;;;3.33;0.80;;;;;;;;;;4973353;28;20043;-66
2022/01/29 12:36:02;;;;;;;4.03;1.30;;;;;;;;;;4973571;28;20057;-69
2022/01/29 12:38:39;;;;;;;10.98;3.15;;;;;;;;;;4990966;28;20549;-67
2022/01/29 12:41:34;;;;;;;16.02;7.38;;;;;;;;;;4989930;28;20074;-67
2022/01/29 12:44:08;;;;;;;5.70;2.90;;;;;;;;;;4993651;28;20093;-67
2022/01/29 12:46:41;;;;;;;2.60;1.17;;;;;;;;;;5006612;28;20061;-69
2022/01/29 12:49:13;;;;;;;2.30;1.30;;;;;;;;;;4966348;28;20090;-66
2022/01/29 12:51:54;;;;;;;2.65;0.80;;;;;;;;;;4992713;28;20685;-68
2022/01/29 12:54:31;;;;;;;3.75;2.53;;;;;;;;;;4974124;28;20522;-67
2022/01/29 12:57:01;;;;;;;30.75;21.83;;;;;;;;;;4954730;28;20135;-67
2022/01/29 12:59:35;;;;;;;9.38;5.15;;;;;;;;;;4978200;28;20200;-68
2022/01/29 13:02:05;;;;;;;8.85;1.67;;;;;;;;;;4990253;28;20054;-68
2022/01/29 13:04:37;;;;;;;5.50;2.20;;;;;;;;;;4989551;28;20065;-68
2022/01/29 13:07:08;;;;;;;3.40;1.58;;;;;;;;;;4973767;28;20054;-67
2022/01/29 13:09:38;;;;;;;1.25;0.50;;;;;;;;;;4988624;28;20050;-68
2022/01/29 13:12:15;;;;;;;6.75;4.43;;;;;;;;;;4989471;28;20216;-68
2022/01/29 13:14:50;;;;;;;4.43;2.70;;;;;;;;;;4957252;28;20094;-67
2022/01/29 13:17:21;;;;;;;9.40;5.60;;;;;;;;;;4940568;28;20076;-69
2022/01/29 13:19:53;;;;;;;5.57;3.25;;;;;;;;;;4954078;28;20067;-68
2022/01/29 13:22:27;;;;;;;4.63;2.75;;;;;;;;;;4971669;28;20069;-68
2022/01/29 13:25:04;;;;;;;6.50;2.83;;;;;;;;;;4989579;28;20073;-68
2022/01/29 13:27:37;;;;;;;1.10;0.85;;;;;;;;;;4988235;28;20054;-64
2022/01/29 13:30:21;;;;;;;1.60;0.70;;;;;;;;;;4905923;28;20990;-67
2022/01/29 13:33:05;;;;;;;1.10;0.75;;;;;;;;;;4968735;28;20054;-68
2022/01/29 13:35:43;;;;;;;1.25;0.73;;;;;;;;;;4980986;28;20062;-70
2022/01/29 13:38:23;;;;;;;;;;;;;;;;;;4983155;28;20423;-68
2022/01/29 13:40:57;;;;;;;1.55;0.60;;;;;;;;;;5003659;28;19932;-67
2022/01/29 13:43:32;;;;;;;1.70;0.80;;;;;;;;;;5005845;28;20049;-71
2022/01/29 13:46:06;;;;;;;5.53;2.85;;;;;;;;;;4989074;28;20070;-68
2022/01/29 13:48:47;;;;;;;5.00;1.98;;;;;;;;;;5004117;28;20061;-69
2022/01/29 13:51:47;;;;;;;12.52;4.95;;;;;;;;;;5005008;28;20053;-68
2022/01/29 13:54:24;;;;;;;7.85;4.63;;;;;;;;;;4940344;28;20069;-70
2022/01/29 13:57:06;;;;;;;12.60;8.63;;;;;;;;;;5003326;28;20069;-67
2022/01/29 13:59:37;;;;;;;10.10;7.88;;;;;;;;;;4971894;28;20276;-69
2022/01/29 14:02:09;;;;;;;8.98;3.97;;;;;;;;;;5009947;28;20065;-69
2022/01/29 14:04:41;;;;;;;2.60;1.00;;;;;;;;;;4977151;28;20050;-69
2022/01/29 14:07:20;;;;;;;3.13;1.85;;;;;;;;;;5009657;28;20084;-68
2022/01/29 14:09:59;;;;;;;8.48;6.00;;;;;;;;;;5009961;28;20052;-68
2022/01/29 14:12:31;;;;;;;4.95;3.38;;;;;;;;;;4993983;28;20049;-68
2022/01/29 14:15:11;;;;;;;1.70;0.60;;;;;;;;;;5013764;28;20049;-70
2022/01/29 14:17:41;;;;;;;1.33;0.60;;;;;;;;;;5017108;28;20064;-68
2022/01/29 14:20:17;;;;;;;1.05;0.60;;;;;;;;;;5018284;28;20061;-70
2022/01/29 14:23:03;;;;;;;6.95;3.17;;;;;;;;;;4985787;28;20060;-69
2022/01/29 14:26:12;;;;;;;7.47;3.60;;;;;;;;;;4993156;28;20061;-69
2022/01/29 14:28:47;;;;;;;16.92;11.32;;;;;;;;;;4953576;28;20058;-70
2022/01/29 14:31:23;;;;;;;2.88;0.95;;;;;;;;;;5005324;28;20061;-70
2022/01/29 14:34:02;;;;;;;1.38;0.82;;;;;;;;;;5016231;28;20053;-71
2022/01/29 14:36:38;;;;;;;3.70;1.90;;;;;;;;;;5019552;28;20200;-68
2022/01/29 14:39:31;;;;;;;2.40;0.70;;;;;;;;;;4963965;28;20059;-69
2022/01/29 14:42:08;;;;;;;0.73;0.50;;;;;;;;;;4963653;28;20055;-69
2022/01/29 14:44:43;;;;;;;2.28;0.52;;;;;;;;;;4969935;28;20067;-70
2022/01/29 14:47:27;;;;;;;6.32;4.25;;;;;;;;;;4950000;28;20062;-71
2022/01/29 14:49:58;;;;;;;6.90;4.47;;;;;;;;;;4902998;28;20543;-68
2022/01/29 14:52:29;;;;;;;2.15;1.23;;;;;;;;;;4905934;28;20055;-69
2022/01/29 14:54:59;;;;;;;1.27;0.45;;;;;;;;;;4963339;28;20054;-68
2022/01/29 14:57:29;;;;;;;1.92;1.10;;;;;;;;;;4951239;28;20127;-70
2022/01/29 15:00:00;;;;;;;1.35;0.60;;;;;;;;;;4947609;28;20063;-68
2022/01/29 15:02:31;;;;;;;2.05;0.70;;;;;;;;;;4948817;28;20059;-68
2022/01/29 15:05:07;;;;;;;4.80;2.17;;;;;;;;;;4948550;28;20471;-69
2022/01/29 15:07:37;;;;;;;6.50;3.17;;;;;;;;;;4946940;28;20082;-70
2022/01/29 15:10:08;;;;;;;4.40;0.70;;;;;;;;;;4917418;28;20047;-69
2022/01/29 15:12:39;;;;;;;1.65;0.60;;;;;;;;;;4945246;28;20055;-69
2022/01/29 15:15:10;;;;;;;1.15;0.50;;;;;;;;;;4940669;28;20051;-69
2022/01/29 15:17:42;;;;;;;2.50;0.60;;;;;;;;;;4940492;28;20443;-71
2022/01/29 15:20:32;;;;;;;1.40;0.60;;;;;;;;;;4919277;29;20072;-69
2022/01/29 15:23:05;;;;;;;11.13;3.00;;;;;;;;;;4907997;29;20108;-70
2022/01/29 15:25:37;;;;;;;2.30;0.60;;;;;;;;;;4894157;29;20063;-71
2022/01/29 15:28:13;;;;;;;3.92;1.33;;;;;;;;;;4926906;28;20043;-71
2022/01/29 15:30:45;;;;;;;2.20;0.93;;;;;;;;;;4950862;28;20420;-70
2022/01/29 15:33:29;;;;;;;2.95;1.15;;;;;;;;;;5001671;28;20049;-70